Teleost — ZCRQ7 — position and weather

sailwx.info

Track history (hours):
 
Tides and Currents Weather Stations Pressure Air Temp Water Temp Dewpoint Dewpoint Depression Visibility Wind Speed Wind Dir Waves Ship Positions

Teleost

Last reported at 2018-Jun-18 13:37 UTC. Time now 2018-Jun-21 01:02 UTC.
Position N 43°35' E 007°08'.

Length 49 m; draft 2.8 m.

Type: Pleasure craft. MMSI: 319451000.

Date/timePositionNaut miles runAvg speedWind from/ knotsBaromVisibWave heightAir tempDewpointWater temp
2018-Jun-18 13:37N 43°35' E 007°08'0 2.3
2018-Jun-18 13:30N 43°35' E 007°08'0 0.2
2018-Jun-18 12:25N 43°35' E 007°08'0 0.0
2018-Jun-18 12:00N 43°35' E 007°08'0 0.0
2018-Jun-17 23:09N 43°35' E 007°08'0 0.0
2018-Jun-17 18:15N 43°35' E 007°08'0 0.0
2018-Jun-17 18:00N 43°35' E 007°08'0 0.0
2018-Jun-17 17:21N 43°35' E 007°08'0 0.0
2018-Jun-17 16:57N 43°35' E 007°08'0 0.0
2018-Jun-17 16:24N 43°35' E 007°08'0 0.0
2018-Jun-17 16:00N 43°35' E 007°08'0 0.0
2018-Jun-17 15:27N 43°35' E 007°08'0 0.0
2018-Jun-17 15:00N 43°35' E 007°08'0 0.0
2018-Jun-17 14:21N 43°35' E 007°08'0 0.0
2018-Jun-17 13:57N 43°35' E 007°08'0 0.0
2018-Jun-17 13:09N 43°35' E 007°08'0 0.0
2018-Jun-17 11:25N 43°35' E 007°08'0 0.0
2018-Jun-17 09:36N 43°35' E 007°08'0 0.0
2018-Jun-17 09:22N 43°35' E 007°08'0 0.0
2018-Jun-17 08:54N 43°35' E 007°08'0 0.1
2018-Jun-17 07:16N 43°35' E 007°08'1 1.3
2018-Jun-17 06:51N 43°35' E 007°08'0 0.0
2018-Jun-17 06:27N 43°35' E 007°08'0 0.0
2018-Jun-17 06:00N 43°35' E 007°08'4 4.7
2018-Jun-17 05:13N 43°32' E 007°11'211.2
2018-Jun-17 05:00N 43°29' E 007°10'610.5
2018-Jun-17 04:28N 43°24' E 007°07'4 7.5
2018-Jun-17 03:59N 43°21' E 007°04'4 8.3
2018-Jun-17 03:29N 43°18' E 007°01'4 8.6
2018-Jun-17 03:00N 43°14' E 006°59'5 9.6
2018-Jun-17 02:30N 43°10' E 006°56'5 9.9
2018-Jun-17 02:00N 43°05' E 006°53'1210.3
2018-Jun-17 00:51N 42°54' E 006°49'410.5
2018-Jun-17 00:30N 42°50' E 006°48'510.4
2018-Jun-17 00:00N 42°46' E 006°45'510.6
2018-Jun-16 23:31N 42°41' E 006°41'510.7
2018-Jun-16 23:00N 42°37' E 006°37'510.9
2018-Jun-16 22:30N 42°32' E 006°33'611.1
2018-Jun-16 22:00N 42°27' E 006°29'611.1
2018-Jun-16 21:29N 42°23' E 006°25'216 9.8
2018-Jun-15 23:33N 40°00' E 002°50'010.5
2018-Jun-15 23:30N 39°60' E 002°49'710.5
2018-Jun-15 22:48N 39°54' E 002°43'310.4
2018-Jun-15 22:30N 39°52' E 002°40'510.3
2018-Jun-15 22:00N 39°48' E 002°36'21 3.6
2018-Jun-15 16:11N 39°28' E 002°27'210.9
2018-Jun-15 15:58N 39°27' E 002°29'510.2
2018-Jun-15 15:30N 39°29' E 002°35'510.4
2018-Jun-15 15:00N 39°33' E 002°40'0 0.4
2018-Jun-15 14:30N 39°33' E 002°40'0 0.4
2018-Jun-15 14:00N 39°33' E 002°40'2 3.2
2018-Jun-15 13:29N 39°34' E 002°38'0 0.0
2018-Jun-15 12:59N 39°34' E 002°38'0 0.0
2018-Jun-15 11:56N 39°34' E 002°38'0 0.0
2018-Jun-15 11:29N 39°34' E 002°38'0 0.0
2018-Jun-15 10:59N 39°34' E 002°38'0 0.0
2018-Jun-15 10:29N 39°34' E 002°38'0 0.0
2018-Jun-15 09:59N 39°34' E 002°38'0 0.0
2018-Jun-15 09:29N 39°34' E 002°38'0 0.0
2018-Jun-15 08:59N 39°34' E 002°38'0 0.0
2018-Jun-15 08:29N 39°34' E 002°38'0 0.0
2018-Jun-15 07:59N 39°34' E 002°38'0 0.0
2018-Jun-15 07:29N 39°34' E 002°38'0 0.0
2018-Jun-15 06:59N 39°34' E 002°38'0 0.0
2018-Jun-15 06:23N 39°34' E 002°38'0 0.0
2018-Jun-15 05:59N 39°34' E 002°38'0 0.0
2018-Jun-15 05:29N 39°34' E 002°38'0 0.0
2018-Jun-15 04:56N 39°34' E 002°38'0 0.0
2018-Jun-15 04:29N 39°34' E 002°38'0 0.0
2018-Jun-15 03:59N 39°34' E 002°38'0 0.0
2018-Jun-15 03:29N 39°34' E 002°38'0 0.0
2018-Jun-15 02:59N 39°34' E 002°38'0 0.0
2018-Jun-15 02:29N 39°34' E 002°38'0 0.0
2018-Jun-15 01:59N 39°34' E 002°38'0 0.0
2018-Jun-15 01:29N 39°34' E 002°38'0 0.0
2018-Jun-15 00:59N 39°34' E 002°38'0 0.0
2018-Jun-15 00:29N 39°34' E 002°38'0 0.0
2018-Jun-14 23:59N 39°34' E 002°38'0 0.0
2018-Jun-14 23:29N 39°34' E 002°38'0 0.0
2018-Jun-14 22:59N 39°34' E 002°38'0 0.0
2018-Jun-14 22:29N 39°34' E 002°38'0 0.0
2018-Jun-14 21:59N 39°34' E 002°38'0 0.0
2018-Jun-14 21:29N 39°34' E 002°38'0 0.0
2018-Jun-14 20:59N 39°34' E 002°38'0 0.0
2018-Jun-14 20:26N 39°34' E 002°38'0 0.0
2018-Jun-14 19:59N 39°34' E 002°38'0 0.0
2018-Jun-14 19:29N 39°34' E 002°38'0 0.0
2018-Jun-14 18:59N 39°34' E 002°38'0 0.0
2018-Jun-14 18:29N 39°34' E 002°38'0 0.0
2018-Jun-14 17:59N 39°34' E 002°38'0 0.0
2018-Jun-14 17:29N 39°34' E 002°38'0 0.0
2018-Jun-14 16:59N 39°34' E 002°38'0 0.0
2018-Jun-14 16:29N 39°34' E 002°38'0 0.0
2018-Jun-14 15:59N 39°34' E 002°38'0 0.0
2018-Jun-14 15:29N 39°34' E 002°38'0 0.0
2018-Jun-14 14:59N 39°34' E 002°38'0 0.0
2018-Jun-14 14:29N 39°34' E 002°38'0 0.0
2018-Jun-14 13:59N 39°34' E 002°38'0 0.0
2018-Jun-14 13:29N 39°34' E 002°38'0 0.0
2018-Jun-14 12:59N 39°34' E 002°38'0 0.0
2018-Jun-14 12:29N 39°34' E 002°38'0 0.0
2018-Jun-14 11:59N 39°34' E 002°38'0 0.0
2018-Jun-14 11:29N 39°34' E 002°38'0 0.0
2018-Jun-14 10:59N 39°34' E 002°38'0 0.0
2018-Jun-14 10:29N 39°34' E 002°38'0 0.0
2018-Jun-14 09:59N 39°34' E 002°38'0 0.0
2018-Jun-14 09:29N 39°34' E 002°38'0 0.0
2018-Jun-14 08:59N 39°34' E 002°38'0 0.0
2018-Jun-14 08:29N 39°34' E 002°38'0 0.0
2018-Jun-14 07:59N 39°34' E 002°38'0 0.0
2018-Jun-14 07:29N 39°34' E 002°38'0 0.0
2018-Jun-14 06:59N 39°34' E 002°38'0 0.0
2018-Jun-14 06:29N 39°34' E 002°38'0 0.0
2018-Jun-14 05:59N 39°34' E 002°38'0 0.0
2018-Jun-14 05:29N 39°34' E 002°38'0 0.0
2018-Jun-14 04:59N 39°34' E 002°38'0 0.0
2018-Jun-14 04:29N 39°34' E 002°38'0 0.0
2018-Jun-14 03:59N 39°34' E 002°38'0 0.0
2018-Jun-14 03:29N 39°34' E 002°38'0 0.0
2018-Jun-14 02:59N 39°34' E 002°38'0 0.0
2018-Jun-14 02:29N 39°34' E 002°38'0 0.0
2018-Jun-14 01:59N 39°34' E 002°38'0 0.0
2018-Jun-14 01:29N 39°34' E 002°38'0 0.0
2018-Jun-14 00:59N 39°34' E 002°38'0 0.0
2018-Jun-14 00:29N 39°34' E 002°38'0 0.0
2018-Jun-13 23:59N 39°34' E 002°38'0 0.0
2018-Jun-13 23:29N 39°34' E 002°38'0 0.0
2018-Jun-13 22:59N 39°34' E 002°38'0 0.0
2018-Jun-13 22:29N 39°34' E 002°38'0 0.0
2018-Jun-13 21:59N 39°34' E 002°38'0 0.0
2018-Jun-13 21:29N 39°34' E 002°38'0 0.0
2018-Jun-13 20:59N 39°34' E 002°38'0 0.0
2018-Jun-13 20:29N 39°34' E 002°38'0 0.0
2018-Jun-13 19:59N 39°34' E 002°38'0 0.0
2018-Jun-13 19:29N 39°34' E 002°38'0 0.0
2018-Jun-13 18:59N 39°34' E 002°38'0 0.0
2018-Jun-13 18:29N 39°34' E 002°38'0 0.0
2018-Jun-13 17:59N 39°34' E 002°38'0 0.0
2018-Jun-13 17:29N 39°34' E 002°38'0 0.0
2018-Jun-13 16:59N 39°34' E 002°38'0 0.0
2018-Jun-13 16:29N 39°34' E 002°38'0 0.0
2018-Jun-13 15:59N 39°34' E 002°38'0 0.0
2018-Jun-13 15:29N 39°34' E 002°38'0 0.0
2018-Jun-13 14:59N 39°34' E 002°38'0 0.0
2018-Jun-13 14:29N 39°34' E 002°38'0 0.0
2018-Jun-13 13:59N 39°34' E 002°38'0 0.0
2018-Jun-13 13:29N 39°34' E 002°38'0 0.0
2018-Jun-13 12:59N 39°34' E 002°38'0 0.0
2018-Jun-13 12:29N 39°34' E 002°38'0 0.0
2018-Jun-13 11:59N 39°34' E 002°38'0 0.0
2018-Jun-13 11:29N 39°34' E 002°38'0 0.0
2018-Jun-13 10:59N 39°34' E 002°38'0 0.0
2018-Jun-13 10:29N 39°34' E 002°38'0 0.0
2018-Jun-13 09:59N 39°34' E 002°38'0 0.0
2018-Jun-13 09:29N 39°34' E 002°38'0 0.0
2018-Jun-13 08:59N 39°34' E 002°38'0 0.0
2018-Jun-13 08:29N 39°34' E 002°38'0 0.0
2018-Jun-13 07:59N 39°34' E 002°38'0 0.0
2018-Jun-13 07:29N 39°34' E 002°38'0 0.0
2018-Jun-13 06:59N 39°34' E 002°38'0 0.0
2018-Jun-13 06:26N 39°34' E 002°38'0 0.0
2018-Jun-13 05:59N 39°34' E 002°38'0 0.0
2018-Jun-13 05:29N 39°34' E 002°38'0 0.0
2018-Jun-13 04:59N 39°34' E 002°38'0 0.0
2018-Jun-13 04:29N 39°34' E 002°38'0 0.0
2018-Jun-13 03:59N 39°34' E 002°38'0 0.0
2018-Jun-13 03:29N 39°34' E 002°38'0 0.0
2018-Jun-13 02:59N 39°34' E 002°38'0 0.0
2018-Jun-13 02:29N 39°34' E 002°38'0 0.0
2018-Jun-13 01:59N 39°34' E 002°38'0 0.0
2018-Jun-13 01:29N 39°34' E 002°38'0 0.0
2018-Jun-13 00:59N 39°34' E 002°38'0 0.0
2018-Jun-13 00:29N 39°34' E 002°38'0 0.0
2018-Jun-12 23:59N 39°34' E 002°38'0 0.0
2018-Jun-12 23:29N 39°34' E 002°38'0 0.0
2018-Jun-12 22:59N 39°34' E 002°38'0 0.0
2018-Jun-12 22:29N 39°34' E 002°38'0 0.0
2018-Jun-12 21:59N 39°34' E 002°38'0 0.0
2018-Jun-12 21:29N 39°34' E 002°38'0 0.0
2018-Jun-12 20:58N 39°34' E 002°38'0 0.0
2018-Jun-12 20:29N 39°34' E 002°38'0 0.0
2018-Jun-12 19:56N 39°34' E 002°38'0 0.0
2018-Jun-12 19:29N 39°34' E 002°38'0 0.0
2018-Jun-12 18:47N 39°34' E 002°38'0 0.0
2018-Jun-12 18:26N 39°34' E 002°38'0 0.0
2018-Jun-12 17:59N 39°34' E 002°38'0 0.0
2018-Jun-12 17:29N 39°34' E 002°38'0 0.0
2018-Jun-12 16:59N 39°34' E 002°38'0 0.0
2018-Jun-12 16:29N 39°34' E 002°38'0 0.0
2018-Jun-12 15:59N 39°34' E 002°38'0 0.0
2018-Jun-12 15:29N 39°34' E 002°38'0 0.0
2018-Jun-12 14:59N 39°34' E 002°38'0 0.0
2018-Jun-12 14:29N 39°34' E 002°38'0 0.0
2018-Jun-12 14:00N 39°34' E 002°38'0 0.0
2018-Jun-12 13:30N 39°34' E 002°38'0 0.0
2018-Jun-12 13:00N 39°34' E 002°38'0 0.0
2018-Jun-12 12:30N 39°34' E 002°38'0 0.0
2018-Jun-12 12:00N 39°34' E 002°38'0 0.0
2018-Jun-12 11:30N 39°34' E 002°38'0 0.0
2018-Jun-12 11:00N 39°34' E 002°38'0 0.0
2018-Jun-12 10:30N 39°34' E 002°38'0 0.0
2018-Jun-12 10:00N 39°34' E 002°38'0 0.0
2018-Jun-12 09:30N 39°34' E 002°38'0 0.0
2018-Jun-12 09:00N 39°34' E 002°38'0 0.0
2018-Jun-12 08:30N 39°34' E 002°38'0 0.0
2018-Jun-12 08:00N 39°34' E 002°38'0 0.0
2018-Jun-12 07:27N 39°34' E 002°38'0 0.0
2018-Jun-12 07:00N 39°34' E 002°38'0 0.0
2018-Jun-12 06:30N 39°34' E 002°38'0 0.0
2018-Jun-12 06:00N 39°34' E 002°38'0 0.0
2018-Jun-12 05:30N 39°34' E 002°38'0 0.0
2018-Jun-12 05:00N 39°34' E 002°38'0 0.0
2018-Jun-12 04:30N 39°34' E 002°38'0 0.0
2018-Jun-12 04:00N 39°34' E 002°38'0 0.0
2018-Jun-12 03:30N 39°34' E 002°38'0 0.0
2018-Jun-12 03:00N 39°34' E 002°38'0 0.0
2018-Jun-12 02:30N 39°34' E 002°38'0 0.0
2018-Jun-12 02:00N 39°34' E 002°38'0 0.0
2018-Jun-12 01:30N 39°34' E 002°38'0 0.0
2018-Jun-12 01:00N 39°34' E 002°38'0 0.0
2018-Jun-12 00:30N 39°34' E 002°38'0 0.0
2018-Jun-12 00:00N 39°34' E 002°38'0 0.0
2018-Jun-11 23:27N 39°34' E 002°38'0 0.0
2018-Jun-11 23:00N 39°34' E 002°38'0 0.0
2018-Jun-11 22:30N 39°34' E 002°38'0 0.0
2018-Jun-11 22:00N 39°34' E 002°38'0 0.0
2018-Jun-11 21:30N 39°34' E 002°38'0 0.0
2018-Jun-11 21:00N 39°34' E 002°38'0 0.0
2018-Jun-11 20:30N 39°34' E 002°38'0 0.0
2018-Jun-11 20:00N 39°34' E 002°38'0 0.0
2018-Jun-11 19:30N 39°34' E 002°38'0 0.0
2018-Jun-11 19:00N 39°34' E 002°38'0 0.0
2018-Jun-11 18:30N 39°34' E 002°38'0 0.0
2018-Jun-11 17:57N 39°34' E 002°38'0 0.0
2018-Jun-11 17:30N 39°34' E 002°38'0 0.0
2018-Jun-11 17:00N 39°34' E 002°38'0 0.0
2018-Jun-11 16:30N 39°34' E 002°38'0 0.0
2018-Jun-11 16:00N 39°34' E 002°38'0 0.0
2018-Jun-11 15:30N 39°34' E 002°38'0 0.0
2018-Jun-11 15:00N 39°34' E 002°38'0 0.0
2018-Jun-11 14:30N 39°34' E 002°38'0 0.0
2018-Jun-11 13:57N 39°34' E 002°38'0 0.0
2018-Jun-11 13:30N 39°34' E 002°38'0 0.0
2018-Jun-11 13:00N 39°34' E 002°38'0 0.0
2018-Jun-11 12:30N 39°34' E 002°38'0 0.0
2018-Jun-11 12:00N 39°34' E 002°38'0 0.0
2018-Jun-11 11:30N 39°34' E 002°38'0 0.0
2018-Jun-11 11:00N 39°34' E 002°38'0 0.0
2018-Jun-11 10:30N 39°34' E 002°38'0 0.0
2018-Jun-11 10:00N 39°34' E 002°38'0 0.0
2018-Jun-11 09:30N 39°34' E 002°38'0 0.0
2018-Jun-11 09:00N 39°34' E 002°38'0 0.0
2018-Jun-11 08:30N 39°34' E 002°38'0 0.0
2018-Jun-11 08:00N 39°34' E 002°38'0 0.0
2018-Jun-11 07:21N 39°34' E 002°38'0 0.0
2018-Jun-11 07:00N 39°34' E 002°38'0 0.0
2018-Jun-11 06:30N 39°34' E 002°38'0 0.0
2018-Jun-11 06:00N 39°34' E 002°38'0 0.0
2018-Jun-11 05:30N 39°34' E 002°38'0 0.0
2018-Jun-11 05:00N 39°34' E 002°38'0 0.0
2018-Jun-11 04:30N 39°34' E 002°38'0 0.0
2018-Jun-11 04:00N 39°34' E 002°38'0 0.0
2018-Jun-11 03:30N 39°34' E 002°38'0 0.0
2018-Jun-11 02:57N 39°34' E 002°38'0 0.0
2018-Jun-11 02:30N 39°34' E 002°38'0 0.0
2018-Jun-11 02:00N 39°34' E 002°38'0 0.0
2018-Jun-11 01:30N 39°34' E 002°38'0 0.0
2018-Jun-11 01:00N 39°34' E 002°38'0 0.0
2018-Jun-11 00:30N 39°34' E 002°38'0 0.0
2018-Jun-11 00:00N 39°34' E 002°38'0 0.0
2018-Jun-10 23:30N 39°34' E 002°38'0 0.0
2018-Jun-10 23:00N 39°34' E 002°38'0 0.0
2018-Jun-10 22:30N 39°34' E 002°38'0 0.0
2018-Jun-10 22:00N 39°34' E 002°38'0 0.0
2018-Jun-10 21:30N 39°34' E 002°38'0 0.0
2018-Jun-10 21:00N 39°34' E 002°38'0 0.0
2018-Jun-10 20:27N 39°34' E 002°38'0 0.0
2018-Jun-10 20:00N 39°34' E 002°38'0 0.0
2018-Jun-10 19:30N 39°34' E 002°38'0 0.0
2018-Jun-10 19:00N 39°34' E 002°38'0 0.0
2018-Jun-10 18:30N 39°34' E 002°38'0 0.0
2018-Jun-10 18:00N 39°34' E 002°38'0 0.0
2018-Jun-10 17:30N 39°34' E 002°38'0 0.0
2018-Jun-10 17:00N 39°34' E 002°38'0 0.0
2018-Jun-10 16:30N 39°34' E 002°38'0 0.0
2018-Jun-10 16:00N 39°34' E 002°38'0 0.0
2018-Jun-10 15:30N 39°34' E 002°38'0 0.0
2018-Jun-10 15:00N 39°34' E 002°38'0 0.0
2018-Jun-10 14:30N 39°34' E 002°38'0 0.0
2018-Jun-10 13:30N 39°34' E 002°38'0 0.0
2018-Jun-10 13:00N 39°34' E 002°38'0 0.0
2018-Jun-10 12:30N 39°34' E 002°38'0 0.0
2018-Jun-10 12:00N 39°34' E 002°38'0 0.0
2018-Jun-10 11:30N 39°34' E 002°38'0 0.0
2018-Jun-10 11:00N 39°34' E 002°38'0 0.0
2018-Jun-10 10:30N 39°34' E 002°38'0 0.0
2018-Jun-10 10:00N 39°34' E 002°38'0 0.0
2018-Jun-10 09:30N 39°34' E 002°38'0 0.0
2018-Jun-10 09:00N 39°34' E 002°38'0 0.0
2018-Jun-10 08:30N 39°34' E 002°38'0 0.0
2018-Jun-10 08:00N 39°34' E 002°38'0 0.0
2018-Jun-10 07:30N 39°34' E 002°38'0 0.0
2018-Jun-10 06:57N 39°34' E 002°38'0 0.0
2018-Jun-10 06:30N 39°34' E 002°38'0 0.0
2018-Jun-10 06:00N 39°34' E 002°38'0 0.0
2018-Jun-10 05:30N 39°34' E 002°38'0 0.0
2018-Jun-10 05:00N 39°34' E 002°38'0 0.0
2018-Jun-10 04:30N 39°34' E 002°38'0 0.0
2018-Jun-10 04:00N 39°34' E 002°38'0 0.0
2018-Jun-10 03:30N 39°34' E 002°38'0 0.0
2018-Jun-10 03:00N 39°34' E 002°38'0 0.0
2018-Jun-10 02:30N 39°34' E 002°38'0 0.0
2018-Jun-10 02:00N 39°34' E 002°38'0 0.0
2018-Jun-10 01:30N 39°34' E 002°38'0 0.0
2018-Jun-10 01:00N 39°34' E 002°38'0 0.0
2018-Jun-10 00:30N 39°34' E 002°38'0 0.0
2018-Jun-10 00:00N 39°34' E 002°38'0 0.0
2018-Jun-09 23:30N 39°34' E 002°38'0 0.0
2018-Jun-09 23:00N 39°34' E 002°38'0 0.0
2018-Jun-09 22:30N 39°34' E 002°38'0 0.0
2018-Jun-09 22:00N 39°34' E 002°38'0 0.0
2018-Jun-09 21:30N 39°34' E 002°38'0 0.0
2018-Jun-09 21:00N 39°34' E 002°38'0 0.0
2018-Jun-09 20:30N 39°34' E 002°38'0 0.0
2018-Jun-09 20:00N 39°34' E 002°38'0 0.0
2018-Jun-09 19:30N 39°34' E 002°38'0 0.0
2018-Jun-09 19:00N 39°34' E 002°38'0 0.0
2018-Jun-09 18:30N 39°34' E 002°38'0 0.0
2018-Jun-09 18:00N 39°34' E 002°38'0 0.0
2018-Jun-09 17:27N 39°34' E 002°38'0 0.0
2018-Jun-09 17:00N 39°34' E 002°38'0 0.0
2018-Jun-09 16:30N 39°34' E 002°38'0 0.0
2018-Jun-09 16:00N 39°34' E 002°38'0 0.0
2018-Jun-09 15:30N 39°34' E 002°38'0 0.0
2018-Jun-09 14:30N 39°34' E 002°38'0 0.0
2018-Jun-09 13:57N 39°34' E 002°38'0 0.0
2018-Jun-09 13:30N 39°34' E 002°38'0 0.0
2018-Jun-09 13:00N 39°34' E 002°38'0 0.0
2018-Jun-09 12:29N 39°34' E 002°38'0 0.0
2018-Jun-09 11:59N 39°34' E 002°38'0 0.0
2018-Jun-09 11:30N 39°34' E 002°38'0 0.0
2018-Jun-09 11:00N 39°34' E 002°38'0 0.0
2018-Jun-09 10:30N 39°34' E 002°38'0 0.0
2018-Jun-09 10:00N 39°34' E 002°38'0 0.0
2018-Jun-09 09:30N 39°34' E 002°38'0 0.0
2018-Jun-09 09:00N 39°34' E 002°38'0 0.0
2018-Jun-09 08:30N 39°34' E 002°38'0 0.0
2018-Jun-09 07:59N 39°34' E 002°38'0 0.0
2018-Jun-09 07:30N 39°34' E 002°38'0 0.0
2018-Jun-09 07:00N 39°34' E 002°38'0 0.0
2018-Jun-09 06:30N 39°34' E 002°38'0 0.0
2018-Jun-09 06:00N 39°34' E 002°38'0 0.0
2018-Jun-09 05:30N 39°34' E 002°38'0 0.0
2018-Jun-09 04:59N 39°34' E 002°38'0 0.0
2018-Jun-09 04:30N 39°34' E 002°38'0 0.0
2018-Jun-09 04:00N 39°34' E 002°38'0 0.0
2018-Jun-09 03:27N 39°34' E 002°38'0 0.0
2018-Jun-09 03:00N 39°34' E 002°38'0 0.0
2018-Jun-09 02:29N 39°34' E 002°38'0 0.0
2018-Jun-09 01:59N 39°34' E 002°38'0 0.0
2018-Jun-09 01:30N 39°34' E 002°38'0 0.0
2018-Jun-09 01:00N 39°34' E 002°38'0 0.0
2018-Jun-09 00:30N 39°34' E 002°38'0 0.0
2018-Jun-09 00:00N 39°34' E 002°38'0 0.0
2018-Jun-08 23:30N 39°34' E 002°38'0 0.0
2018-Jun-08 22:59N 39°34' E 002°38'0 0.0
2018-Jun-08 22:30N 39°34' E 002°38'0 0.0
2018-Jun-08 22:00N 39°34' E 002°38'0 0.0
2018-Jun-08 21:30N 39°34' E 002°38'0 0.0
2018-Jun-08 20:54N 39°34' E 002°38'0 0.0
2018-Jun-08 20:29N 39°34' E 002°38'0 0.0
2018-Jun-08 20:00N 39°34' E 002°38'0 0.0
2018-Jun-08 19:30N 39°34' E 002°38'0 0.0
2018-Jun-08 19:00N 39°34' E 002°38'0 0.0
2018-Jun-08 18:29N 39°34' E 002°38'0 0.0
2018-Jun-08 17:59N 39°34' E 002°38'0 0.0
2018-Jun-08 17:29N 39°34' E 002°38'0 0.0
2018-Jun-08 16:59N 39°34' E 002°38'0 0.0
2018-Jun-08 16:29N 39°34' E 002°38'0 0.0
2018-Jun-08 15:59N 39°34' E 002°38'0 0.0
2018-Jun-08 15:29N 39°34' E 002°38'0 0.0
2018-Jun-08 14:59N 39°34' E 002°38'0 0.0
2018-Jun-08 14:30N 39°34' E 002°38'0 0.0
2018-Jun-08 14:00N 39°34' E 002°38'  
Track history (hours):
 
Tides and Currents Weather Stations Pressure Air Temp Water Temp Dewpoint Dewpoint Depression Visibility Wind Speed Wind Dir Waves Ship Positions

Teleost

Last reported at 2018-Jun-18 13:37 UTC. Time now 2018-Jun-21 01:02 UTC.
Position N 43°35' E 007°08'.

Length 49 m; draft 2.8 m.

Type: Pleasure craft. MMSI: 319451000.

Date/timePositionNaut miles runAvg speedWind from/ knotsBaromVisibWave heightAir tempDewpointWater temp
2018-Jun-18 13:37N 43°35' E 007°08'0 2.3
2018-Jun-18 13:30N 43°35' E 007°08'0 0.2
2018-Jun-18 12:25N 43°35' E 007°08'0 0.0
2018-Jun-18 12:00N 43°35' E 007°08'0 0.0
2018-Jun-17 23:09N 43°35' E 007°08'0 0.0
2018-Jun-17 18:15N 43°35' E 007°08'0 0.0
2018-Jun-17 18:00N 43°35' E 007°08'0 0.0
2018-Jun-17 17:21N 43°35' E 007°08'0 0.0
2018-Jun-17 16:57N 43°35' E 007°08'0 0.0
2018-Jun-17 16:24N 43°35' E 007°08'0 0.0
2018-Jun-17 16:00N 43°35' E 007°08'0 0.0
2018-Jun-17 15:27N 43°35' E 007°08'0 0.0
2018-Jun-17 15:00N 43°35' E 007°08'0 0.0
2018-Jun-17 14:21N 43°35' E 007°08'0 0.0
2018-Jun-17 13:57N 43°35' E 007°08'0 0.0
2018-Jun-17 13:09N 43°35' E 007°08'0 0.0
2018-Jun-17 11:25N 43°35' E 007°08'0 0.0
2018-Jun-17 09:36N 43°35' E 007°08'0 0.0
2018-Jun-17 09:22N 43°35' E 007°08'0 0.0
2018-Jun-17 08:54N 43°35' E 007°08'0 0.1
2018-Jun-17 07:16N 43°35' E 007°08'1 1.3
2018-Jun-17 06:51N 43°35' E 007°08'0 0.0
2018-Jun-17 06:27N 43°35' E 007°08'0 0.0
2018-Jun-17 06:00N 43°35' E 007°08'4 4.7
2018-Jun-17 05:13N 43°32' E 007°11'211.2
2018-Jun-17 05:00N 43°29' E 007°10'610.5
2018-Jun-17 04:28N 43°24' E 007°07'4 7.5
2018-Jun-17 03:59N 43°21' E 007°04'4 8.3
2018-Jun-17 03:29N 43°18' E 007°01'4 8.6
2018-Jun-17 03:00N 43°14' E 006°59'5 9.6
2018-Jun-17 02:30N 43°10' E 006°56'5 9.9
2018-Jun-17 02:00N 43°05' E 006°53'1210.3
2018-Jun-17 00:51N 42°54' E 006°49'410.5
2018-Jun-17 00:30N 42°50' E 006°48'510.4
2018-Jun-17 00:00N 42°46' E 006°45'510.6
2018-Jun-16 23:31N 42°41' E 006°41'510.7
2018-Jun-16 23:00N 42°37' E 006°37'510.9
2018-Jun-16 22:30N 42°32' E 006°33'611.1
2018-Jun-16 22:00N 42°27' E 006°29'611.1
2018-Jun-16 21:29N 42°23' E 006°25'216 9.8
2018-Jun-15 23:33N 40°00' E 002°50'010.5
2018-Jun-15 23:30N 39°60' E 002°49'710.5
2018-Jun-15 22:48N 39°54' E 002°43'310.4
2018-Jun-15 22:30N 39°52' E 002°40'510.3
2018-Jun-15 22:00N 39°48' E 002°36'21 3.6
2018-Jun-15 16:11N 39°28' E 002°27'210.9
2018-Jun-15 15:58N 39°27' E 002°29'510.2
2018-Jun-15 15:30N 39°29' E 002°35'510.4
2018-Jun-15 15:00N 39°33' E 002°40'0 0.4
2018-Jun-15 14:30N 39°33' E 002°40'0 0.4
2018-Jun-15 14:00N 39°33' E 002°40'2 3.2
2018-Jun-15 13:29N 39°34' E 002°38'0 0.0
2018-Jun-15 12:59N 39°34' E 002°38'0 0.0
2018-Jun-15 11:56N 39°34' E 002°38'0 0.0
2018-Jun-15 11:29N 39°34' E 002°38'0 0.0
2018-Jun-15 10:59N 39°34' E 002°38'0 0.0
2018-Jun-15 10:29N 39°34' E 002°38'0 0.0
2018-Jun-15 09:59N 39°34' E 002°38'0 0.0
2018-Jun-15 09:29N 39°34' E 002°38'0 0.0
2018-Jun-15 08:59N 39°34' E 002°38'0 0.0
2018-Jun-15 08:29N 39°34' E 002°38'0 0.0
2018-Jun-15 07:59N 39°34' E 002°38'0 0.0
2018-Jun-15 07:29N 39°34' E 002°38'0 0.0
2018-Jun-15 06:59N 39°34' E 002°38'0 0.0
2018-Jun-15 06:23N 39°34' E 002°38'0 0.0
2018-Jun-15 05:59N 39°34' E 002°38'0 0.0
2018-Jun-15 05:29N 39°34' E 002°38'0 0.0
2018-Jun-15 04:56N 39°34' E 002°38'0 0.0
2018-Jun-15 04:29N 39°34' E 002°38'0 0.0
2018-Jun-15 03:59N 39°34' E 002°38'0 0.0
2018-Jun-15 03:29N 39°34' E 002°38'0 0.0
2018-Jun-15 02:59N 39°34' E 002°38'0 0.0
2018-Jun-15 02:29N 39°34' E 002°38'0 0.0
2018-Jun-15 01:59N 39°34' E 002°38'0 0.0
2018-Jun-15 01:29N 39°34' E 002°38'0 0.0
2018-Jun-15 00:59N 39°34' E 002°38'0 0.0
2018-Jun-15 00:29N 39°34' E 002°38'0 0.0
2018-Jun-14 23:59N 39°34' E 002°38'0 0.0
2018-Jun-14 23:29N 39°34' E 002°38'0 0.0
2018-Jun-14 22:59N 39°34' E 002°38'0 0.0
2018-Jun-14 22:29N 39°34' E 002°38'0 0.0
2018-Jun-14 21:59N 39°34' E 002°38'0 0.0
2018-Jun-14 21:29N 39°34' E 002°38'0 0.0
2018-Jun-14 20:59N 39°34' E 002°38'0 0.0
2018-Jun-14 20:26N 39°34' E 002°38'0 0.0
2018-Jun-14 19:59N 39°34' E 002°38'0 0.0
2018-Jun-14 19:29N 39°34' E 002°38'0 0.0
2018-Jun-14 18:59N 39°34' E 002°38'0 0.0
2018-Jun-14 18:29N 39°34' E 002°38'0 0.0
2018-Jun-14 17:59N 39°34' E 002°38'0 0.0
2018-Jun-14 17:29N 39°34' E 002°38'0 0.0
2018-Jun-14 16:59N 39°34' E 002°38'0 0.0
2018-Jun-14 16:29N 39°34' E 002°38'0 0.0
2018-Jun-14 15:59N 39°34' E 002°38'0 0.0
2018-Jun-14 15:29N 39°34' E 002°38'0 0.0
2018-Jun-14 14:59N 39°34' E 002°38'0 0.0
2018-Jun-14 14:29N 39°34' E 002°38'0 0.0
2018-Jun-14 13:59N 39°34' E 002°38'0 0.0
2018-Jun-14 13:29N 39°34' E 002°38'0 0.0
2018-Jun-14 12:59N 39°34' E 002°38'0 0.0
2018-Jun-14 12:29N 39°34' E 002°38'0 0.0
2018-Jun-14 11:59N 39°34' E 002°38'0 0.0
2018-Jun-14 11:29N 39°34' E 002°38'0 0.0
2018-Jun-14 10:59N 39°34' E 002°38'0 0.0
2018-Jun-14 10:29N 39°34' E 002°38'0 0.0
2018-Jun-14 09:59N 39°34' E 002°38'0 0.0
2018-Jun-14 09:29N 39°34' E 002°38'0 0.0
2018-Jun-14 08:59N 39°34' E 002°38'0 0.0
2018-Jun-14 08:29N 39°34' E 002°38'0 0.0
2018-Jun-14 07:59N 39°34' E 002°38'0 0.0
2018-Jun-14 07:29N 39°34' E 002°38'0 0.0
2018-Jun-14 06:59N 39°34' E 002°38'0 0.0
2018-Jun-14 06:29N 39°34' E 002°38'0 0.0
2018-Jun-14 05:59N 39°34' E 002°38'0 0.0
2018-Jun-14 05:29N 39°34' E 002°38'0 0.0
2018-Jun-14 04:59N 39°34' E 002°38'0 0.0
2018-Jun-14 04:29N 39°34' E 002°38'0 0.0
2018-Jun-14 03:59N 39°34' E 002°38'0 0.0
2018-Jun-14 03:29N 39°34' E 002°38'0 0.0
2018-Jun-14 02:59N 39°34' E 002°38'0 0.0
2018-Jun-14 02:29N 39°34' E 002°38'0 0.0
2018-Jun-14 01:59N 39°34' E 002°38'0 0.0
2018-Jun-14 01:29N 39°34' E 002°38'0 0.0
2018-Jun-14 00:59N 39°34' E 002°38'0 0.0
2018-Jun-14 00:29N 39°34' E 002°38'0 0.0
2018-Jun-13 23:59N 39°34' E 002°38'0 0.0
2018-Jun-13 23:29N 39°34' E 002°38'0 0.0
2018-Jun-13 22:59N 39°34' E 002°38'0 0.0
2018-Jun-13 22:29N 39°34' E 002°38'0 0.0
2018-Jun-13 21:59N 39°34' E 002°38'0 0.0
2018-Jun-13 21:29N 39°34' E 002°38'0 0.0
2018-Jun-13 20:59N 39°34' E 002°38'0 0.0
2018-Jun-13 20:29N 39°34' E 002°38'0 0.0
2018-Jun-13 19:59N 39°34' E 002°38'0 0.0
2018-Jun-13 19:29N 39°34' E 002°38'0 0.0
2018-Jun-13 18:59N 39°34' E 002°38'0 0.0
2018-Jun-13 18:29N 39°34' E 002°38'0 0.0
2018-Jun-13 17:59N 39°34' E 002°38'0 0.0
2018-Jun-13 17:29N 39°34' E 002°38'0 0.0
2018-Jun-13 16:59N 39°34' E 002°38'0 0.0
2018-Jun-13 16:29N 39°34' E 002°38'0 0.0
2018-Jun-13 15:59N 39°34' E 002°38'0 0.0
2018-Jun-13 15:29N 39°34' E 002°38'0 0.0
2018-Jun-13 14:59N 39°34' E 002°38'0 0.0
2018-Jun-13 14:29N 39°34' E 002°38'0 0.0
2018-Jun-13 13:59N 39°34' E 002°38'0 0.0
2018-Jun-13 13:29N 39°34' E 002°38'0 0.0
2018-Jun-13 12:59N 39°34' E 002°38'0 0.0
2018-Jun-13 12:29N 39°34' E 002°38'0 0.0
2018-Jun-13 11:59N 39°34' E 002°38'0 0.0
2018-Jun-13 11:29N 39°34' E 002°38'0 0.0
2018-Jun-13 10:59N 39°34' E 002°38'0 0.0
2018-Jun-13 10:29N 39°34' E 002°38'0 0.0
2018-Jun-13 09:59N 39°34' E 002°38'0 0.0
2018-Jun-13 09:29N 39°34' E 002°38'0 0.0
2018-Jun-13 08:59N 39°34' E 002°38'0 0.0
2018-Jun-13 08:29N 39°34' E 002°38'0 0.0
2018-Jun-13 07:59N 39°34' E 002°38'0 0.0
2018-Jun-13 07:29N 39°34' E 002°38'0 0.0
2018-Jun-13 06:59N 39°34' E 002°38'0 0.0
2018-Jun-13 06:26N 39°34' E 002°38'0 0.0
2018-Jun-13 05:59N 39°34' E 002°38'0 0.0
2018-Jun-13 05:29N 39°34' E 002°38'0 0.0
2018-Jun-13 04:59N 39°34' E 002°38'0 0.0
2018-Jun-13 04:29N 39°34' E 002°38'0 0.0
2018-Jun-13 03:59N 39°34' E 002°38'0 0.0
2018-Jun-13 03:29N 39°34' E 002°38'0 0.0
2018-Jun-13 02:59N 39°34' E 002°38'0 0.0
2018-Jun-13 02:29N 39°34' E 002°38'0 0.0
2018-Jun-13 01:59N 39°34' E 002°38'0 0.0
2018-Jun-13 01:29N 39°34' E 002°38'0 0.0
2018-Jun-13 00:59N 39°34' E 002°38'0 0.0
2018-Jun-13 00:29N 39°34' E 002°38'0 0.0
2018-Jun-12 23:59N 39°34' E 002°38'0 0.0
2018-Jun-12 23:29N 39°34' E 002°38'0 0.0
2018-Jun-12 22:59N 39°34' E 002°38'0 0.0
2018-Jun-12 22:29N 39°34' E 002°38'0 0.0
2018-Jun-12 21:59N 39°34' E 002°38'0 0.0
2018-Jun-12 21:29N 39°34' E 002°38'0 0.0
2018-Jun-12 20:58N 39°34' E 002°38'0 0.0
2018-Jun-12 20:29N 39°34' E 002°38'0 0.0
2018-Jun-12 19:56N 39°34' E 002°38'0 0.0
2018-Jun-12 19:29N 39°34' E 002°38'0 0.0
2018-Jun-12 18:47N 39°34' E 002°38'0 0.0
2018-Jun-12 18:26N 39°34' E 002°38'0 0.0
2018-Jun-12 17:59N 39°34' E 002°38'0 0.0
2018-Jun-12 17:29N 39°34' E 002°38'0 0.0
2018-Jun-12 16:59N 39°34' E 002°38'0 0.0
2018-Jun-12 16:29N 39°34' E 002°38'0 0.0
2018-Jun-12 15:59N 39°34' E 002°38'0 0.0
2018-Jun-12 15:29N 39°34' E 002°38'0 0.0
2018-Jun-12 14:59N 39°34' E 002°38'0 0.0
2018-Jun-12 14:29N 39°34' E 002°38'0 0.0
2018-Jun-12 14:00N 39°34' E 002°38'0 0.0
2018-Jun-12 13:30N 39°34' E 002°38'0 0.0
2018-Jun-12 13:00N 39°34' E 002°38'0 0.0
2018-Jun-12 12:30N 39°34' E 002°38'0 0.0
2018-Jun-12 12:00N 39°34' E 002°38'0 0.0
2018-Jun-12 11:30N 39°34' E 002°38'0 0.0
2018-Jun-12 11:00N 39°34' E 002°38'0 0.0
2018-Jun-12 10:30N 39°34' E 002°38'0 0.0
2018-Jun-12 10:00N 39°34' E 002°38'0 0.0
2018-Jun-12 09:30N 39°34' E 002°38'0 0.0
2018-Jun-12 09:00N 39°34' E 002°38'0 0.0
2018-Jun-12 08:30N 39°34' E 002°38'0 0.0
2018-Jun-12 08:00N 39°34' E 002°38'0 0.0
2018-Jun-12 07:27N 39°34' E 002°38'0 0.0
2018-Jun-12 07:00N 39°34' E 002°38'0 0.0
2018-Jun-12 06:30N 39°34' E 002°38'0 0.0
2018-Jun-12 06:00N 39°34' E 002°38'0 0.0
2018-Jun-12 05:30N 39°34' E 002°38'0 0.0
2018-Jun-12 05:00N 39°34' E 002°38'0 0.0
2018-Jun-12 04:30N 39°34' E 002°38'0 0.0
2018-Jun-12 04:00N 39°34' E 002°38'0 0.0
2018-Jun-12 03:30N 39°34' E 002°38'0 0.0
2018-Jun-12 03:00N 39°34' E 002°38'0 0.0
2018-Jun-12 02:30N 39°34' E 002°38'0 0.0
2018-Jun-12 02:00N 39°34' E 002°38'0 0.0
2018-Jun-12 01:30N 39°34' E 002°38'0 0.0
2018-Jun-12 01:00N 39°34' E 002°38'0 0.0
2018-Jun-12 00:30N 39°34' E 002°38'0 0.0
2018-Jun-12 00:00N 39°34' E 002°38'0 0.0
2018-Jun-11 23:27N 39°34' E 002°38'0 0.0
2018-Jun-11 23:00N 39°34' E 002°38'0 0.0
2018-Jun-11 22:30N 39°34' E 002°38'0 0.0
2018-Jun-11 22:00N 39°34' E 002°38'0 0.0
2018-Jun-11 21:30N 39°34' E 002°38'0 0.0
2018-Jun-11 21:00N 39°34' E 002°38'0 0.0
2018-Jun-11 20:30N 39°34' E 002°38'0 0.0
2018-Jun-11 20:00N 39°34' E 002°38'0 0.0
2018-Jun-11 19:30N 39°34' E 002°38'0 0.0
2018-Jun-11 19:00N 39°34' E 002°38'0 0.0
2018-Jun-11 18:30N 39°34' E 002°38'0 0.0
2018-Jun-11 17:57N 39°34' E 002°38'0 0.0
2018-Jun-11 17:30N 39°34' E 002°38'0 0.0
2018-Jun-11 17:00N 39°34' E 002°38'0 0.0
2018-Jun-11 16:30N 39°34' E 002°38'0 0.0
2018-Jun-11 16:00N 39°34' E 002°38'0 0.0
2018-Jun-11 15:30N 39°34' E 002°38'0 0.0
2018-Jun-11 15:00N 39°34' E 002°38'0 0.0
2018-Jun-11 14:30N 39°34' E 002°38'0 0.0
2018-Jun-11 13:57N 39°34' E 002°38'0 0.0
2018-Jun-11 13:30N 39°34' E 002°38'0 0.0
2018-Jun-11 13:00N 39°34' E 002°38'0 0.0
2018-Jun-11 12:30N 39°34' E 002°38'0 0.0
2018-Jun-11 12:00N 39°34' E 002°38'0 0.0
2018-Jun-11 11:30N 39°34' E 002°38'0 0.0
2018-Jun-11 11:00N 39°34' E 002°38'0 0.0
2018-Jun-11 10:30N 39°34' E 002°38'0 0.0
2018-Jun-11 10:00N 39°34' E 002°38'0 0.0
2018-Jun-11 09:30N 39°34' E 002°38'0 0.0
2018-Jun-11 09:00N 39°34' E 002°38'0 0.0
2018-Jun-11 08:30N 39°34' E 002°38'0 0.0
2018-Jun-11 08:00N 39°34' E 002°38'0 0.0
2018-Jun-11 07:21N 39°34' E 002°38'0 0.0
2018-Jun-11 07:00N 39°34' E 002°38'0 0.0
2018-Jun-11 06:30N 39°34' E 002°38'0 0.0
2018-Jun-11 06:00N 39°34' E 002°38'0 0.0
2018-Jun-11 05:30N 39°34' E 002°38'0 0.0
2018-Jun-11 05:00N 39°34' E 002°38'0 0.0
2018-Jun-11 04:30N 39°34' E 002°38'0 0.0
2018-Jun-11 04:00N 39°34' E 002°38'0 0.0
2018-Jun-11 03:30N 39°34' E 002°38'0 0.0
2018-Jun-11 02:57N 39°34' E 002°38'0 0.0
2018-Jun-11 02:30N 39°34' E 002°38'0 0.0
2018-Jun-11 02:00N 39°34' E 002°38'0 0.0
2018-Jun-11 01:30N 39°34' E 002°38'0 0.0
2018-Jun-11 01:00N 39°34' E 002°38'0 0.0
2018-Jun-11 00:30N 39°34' E 002°38'0 0.0
2018-Jun-11 00:00N 39°34' E 002°38'0 0.0
2018-Jun-10 23:30N 39°34' E 002°38'0 0.0
2018-Jun-10 23:00N 39°34' E 002°38'0 0.0
2018-Jun-10 22:30N 39°34' E 002°38'0 0.0
2018-Jun-10 22:00N 39°34' E 002°38'0 0.0
2018-Jun-10 21:30N 39°34' E 002°38'0 0.0
2018-Jun-10 21:00N 39°34' E 002°38'0 0.0
2018-Jun-10 20:27N 39°34' E 002°38'0 0.0
2018-Jun-10 20:00N 39°34' E 002°38'0 0.0
2018-Jun-10 19:30N 39°34' E 002°38'0 0.0
2018-Jun-10 19:00N 39°34' E 002°38'0 0.0
2018-Jun-10 18:30N 39°34' E 002°38'0 0.0
2018-Jun-10 18:00N 39°34' E 002°38'0 0.0
2018-Jun-10 17:30N 39°34' E 002°38'0 0.0
2018-Jun-10 17:00N 39°34' E 002°38'0 0.0
2018-Jun-10 16:30N 39°34' E 002°38'0 0.0
2018-Jun-10 16:00N 39°34' E 002°38'0 0.0
2018-Jun-10 15:30N 39°34' E 002°38'0 0.0
2018-Jun-10 15:00N 39°34' E 002°38'0 0.0
2018-Jun-10 14:30N 39°34' E 002°38'0 0.0
2018-Jun-10 13:30N 39°34' E 002°38'0 0.0
2018-Jun-10 13:00N 39°34' E 002°38'0 0.0
2018-Jun-10 12:30N 39°34' E 002°38'0 0.0
2018-Jun-10 12:00N 39°34' E 002°38'0 0.0
2018-Jun-10 11:30N 39°34' E 002°38'0 0.0
2018-Jun-10 11:00N 39°34' E 002°38'0 0.0
2018-Jun-10 10:30N 39°34' E 002°38'0 0.0
2018-Jun-10 10:00N 39°34' E 002°38'0 0.0
2018-Jun-10 09:30N 39°34' E 002°38'0 0.0
2018-Jun-10 09:00N 39°34' E 002°38'0 0.0
2018-Jun-10 08:30N 39°34' E 002°38'0 0.0
2018-Jun-10 08:00N 39°34' E 002°38'0 0.0
2018-Jun-10 07:30N 39°34' E 002°38'0 0.0
2018-Jun-10 06:57N 39°34' E 002°38'0 0.0
2018-Jun-10 06:30N 39°34' E 002°38'0 0.0
2018-Jun-10 06:00N 39°34' E 002°38'0 0.0
2018-Jun-10 05:30N 39°34' E 002°38'0 0.0
2018-Jun-10 05:00N 39°34' E 002°38'0 0.0
2018-Jun-10 04:30N 39°34' E 002°38'0 0.0
2018-Jun-10 04:00N 39°34' E 002°38'0 0.0
2018-Jun-10 03:30N 39°34' E 002°38'0 0.0
2018-Jun-10 03:00N 39°34' E 002°38'0 0.0
2018-Jun-10 02:30N 39°34' E 002°38'0 0.0
2018-Jun-10 02:00N 39°34' E 002°38'0 0.0
2018-Jun-10 01:30N 39°34' E 002°38'0 0.0
2018-Jun-10 01:00N 39°34' E 002°38'0 0.0
2018-Jun-10 00:30N 39°34' E 002°38'0 0.0
2018-Jun-10 00:00N 39°34' E 002°38'0 0.0
2018-Jun-09 23:30N 39°34' E 002°38'0 0.0
2018-Jun-09 23:00N 39°34' E 002°38'0 0.0
2018-Jun-09 22:30N 39°34' E 002°38'0 0.0
2018-Jun-09 22:00N 39°34' E 002°38'0 0.0
2018-Jun-09 21:30N 39°34' E 002°38'0 0.0
2018-Jun-09 21:00N 39°34' E 002°38'0 0.0
2018-Jun-09 20:30N 39°34' E 002°38'0 0.0
2018-Jun-09 20:00N 39°34' E 002°38'0 0.0
2018-Jun-09 19:30N 39°34' E 002°38'0 0.0
2018-Jun-09 19:00N 39°34' E 002°38'0 0.0
2018-Jun-09 18:30N 39°34' E 002°38'0 0.0
2018-Jun-09 18:00N 39°34' E 002°38'0 0.0
2018-Jun-09 17:27N 39°34' E 002°38'0 0.0
2018-Jun-09 17:00N 39°34' E 002°38'0 0.0
2018-Jun-09 16:30N 39°34' E 002°38'0 0.0
2018-Jun-09 16:00N 39°34' E 002°38'0 0.0
2018-Jun-09 15:30N 39°34' E 002°38'0 0.0
2018-Jun-09 14:30N 39°34' E 002°38'0 0.0
2018-Jun-09 13:57N 39°34' E 002°38'0 0.0
2018-Jun-09 13:30N 39°34' E 002°38'0 0.0
2018-Jun-09 13:00N 39°34' E 002°38'0 0.0
2018-Jun-09 12:29N 39°34' E 002°38'0 0.0
2018-Jun-09 11:59N 39°34' E 002°38'0 0.0
2018-Jun-09 11:30N 39°34' E 002°38'0 0.0
2018-Jun-09 11:00N 39°34' E 002°38'0 0.0
2018-Jun-09 10:30N 39°34' E 002°38'0 0.0
2018-Jun-09 10:00N 39°34' E 002°38'0 0.0
2018-Jun-09 09:30N 39°34' E 002°38'0 0.0
2018-Jun-09 09:00N 39°34' E 002°38'0 0.0
2018-Jun-09 08:30N 39°34' E 002°38'0 0.0
2018-Jun-09 07:59N 39°34' E 002°38'0 0.0
2018-Jun-09 07:30N 39°34' E 002°38'0 0.0
2018-Jun-09 07:00N 39°34' E 002°38'0 0.0
2018-Jun-09 06:30N 39°34' E 002°38'0 0.0
2018-Jun-09 06:00N 39°34' E 002°38'0 0.0
2018-Jun-09 05:30N 39°34' E 002°38'0 0.0
2018-Jun-09 04:59N 39°34' E 002°38'0 0.0
2018-Jun-09 04:30N 39°34' E 002°38'0 0.0
2018-Jun-09 04:00N 39°34' E 002°38'0 0.0
2018-Jun-09 03:27N 39°34' E 002°38'0 0.0
2018-Jun-09 03:00N 39°34' E 002°38'0 0.0
2018-Jun-09 02:29N 39°34' E 002°38'0 0.0
2018-Jun-09 01:59N 39°34' E 002°38'0 0.0
2018-Jun-09 01:30N 39°34' E 002°38'0 0.0
2018-Jun-09 01:00N 39°34' E 002°38'0 0.0
2018-Jun-09 00:30N 39°34' E 002°38'0 0.0
2018-Jun-09 00:00N 39°34' E 002°38'0 0.0
2018-Jun-08 23:30N 39°34' E 002°38'0 0.0
2018-Jun-08 22:59N 39°34' E 002°38'0 0.0
2018-Jun-08 22:30N 39°34' E 002°38'0 0.0
2018-Jun-08 22:00N 39°34' E 002°38'0 0.0
2018-Jun-08 21:30N 39°34' E 002°38'0 0.0
2018-Jun-08 20:54N 39°34' E 002°38'0 0.0
2018-Jun-08 20:29N 39°34' E 002°38'0 0.0
2018-Jun-08 20:00N 39°34' E 002°38'0 0.0
2018-Jun-08 19:30N 39°34' E 002°38'0 0.0
2018-Jun-08 19:00N 39°34' E 002°38'0 0.0
2018-Jun-08 18:29N 39°34' E 002°38'0 0.0
2018-Jun-08 17:59N 39°34' E 002°38'0 0.0
2018-Jun-08 17:29N 39°34' E 002°38'0 0.0
2018-Jun-08 16:59N 39°34' E 002°38'0 0.0
2018-Jun-08 16:29N 39°34' E 002°38'0 0.0
2018-Jun-08 15:59N 39°34' E 002°38'0 0.0
2018-Jun-08 15:29N 39°34' E 002°38'0 0.0
2018-Jun-08 14:59N 39°34' E 002°38'0 0.0
2018-Jun-08 14:30N 39°34' E 002°38'0 0.0
2018-Jun-08 14:00N 39°34' E 002°38'  

Dump ship's entire track history